Miguel Nunez

Chefscout - Nacional
24 Sep 2028
Sonntag
Verarbeitung

Persönlichkeit

Anpassungsfähigkeit (20) Ehrgeiz (10) Kontroverse (19) Loyalität (5) Druck (17) Professionalität (16) Fairness (15) Temperament (7)

Profil

Trainerstil Demokratisch
Lizenz Nationale B
Entschlossenheit 5
Menschenführung 9
Motivation 13
Disziplin 9
Arbeitszufriedenheit
100%
Ermüdung
0%
Rolle Chefscout
Gehalt 49.7K p/W
Vertrag 14.03.2030

Leistung

Verhalten Gut
Trainingseffektivität
55%
Spielerentwicklung
55%
Verletzungsprävention
25%
Taktische Umsetzung
70%

Letzte Ereignisse

Empfahl ein Transferziel jetzt
Empfahl ein Transferziel jetzt
Empfahl ein Transferziel jetzt
Empfahl ein Transferziel jetzt
Empfahl ein Transferziel jetzt
Empfahl ein Transferziel jetzt
Empfahl ein Transferziel jetzt
Spieler begutachtet jetzt

Aktuell beobachtet

329
Spieler Verein Status Fähigkeit Vertrauen Beobachtet Zuletzt beobachtet Letzte Stimme
Franco Ibarra Rosario Central Aktiv 128 / 138 40% 2 23.09.2028 -
Ayrton Costa Boca Juniors Aktiv 129 / 142 40% 1 23.09.2028 -
Juan Carlos Portillo River Plate Aktiv 134 / 139 40% 3 20.09.2028 -
Bruno Leyes Godoy Cruz Aktiv 125 / 138 40% 3 20.09.2028 -
Elián Giménez Sarmiento Aktiv 124 / 121 40% 2 20.09.2028 -
Rodrigo Herrera Newell's Old Boys Aktiv 123 / 119 40% 3 19.09.2028 -
Ignacio Vázquez Platense Aktiv 126 / 122 40% 4 19.09.2028 -
Ignacio Rodríguez Racing Club Aktiv 124 / 132 40% 2 19.09.2028 -
Guille Rosas Boca Juniors Aktiv 144 / 155 40% 2 17.09.2028 -
Nazareno Colombo Racing Club Aktiv 131 / 127 40% 4 16.09.2028 -
Matías Galarza Talleres Aktiv 126 / 129 40% 2 16.09.2028 -
Gastón Hernández San Lorenzo Aktiv 124 / 125 40% 3 16.09.2028 -
Agustín Cardozo Lanús Aktiv 124 / 123 40% 1 12.09.2028 -
Thiago Silvero Vélez Aktiv 125 / 127 40% 1 10.09.2028 -
Marcos López Gimnasia La Plata Aktiv 131 / 124 40% 1 10.09.2028 -
Gastón Martirena Racing Club Aktiv 129 / 127 40% 2 07.09.2028 -
Riku Yamane Yokohama F. Marinos Aktiv 140 / 122 40% 1 07.09.2028 -
Joaquín Mosqueira Talleres Aktiv 131 / 134 40% 1 07.09.2028 -
Santiago Núñez Estudiantes Aktiv 129 / 125 40% 3 06.09.2028 -
Ignacio Perruzzi San Lorenzo Aktiv 130 / 127 40% 1 06.09.2028 -
Santiago González Tigre Aktiv 132 / 134 40% 2 05.09.2028 -
Agustín Sández Newell's Old Boys Aktiv 130 / 123 40% 1 05.09.2028 -
Tobías Ramírez River Plate Aktiv 131 / 138 40% 1 05.09.2028 -
Gastón Benedetti Estudiantes Aktiv 124 / 119 40% 2 25.08.2028 -
Augusto Schott Talleres Aktiv 125 / 126 40% 1 25.08.2028 -
Juan Saborido Platense Aktiv 129 / 123 40% 1 25.08.2028 -
Jonathan De Irastorza Independiente Aktiv 131 / 141 40% 1 24.08.2028 -
David Carmo Olympiacos Aktiv 150 / 156 40% 1 24.08.2028 -
Santiago Longo Belgrano Aktiv 124 / 120 40% 1 24.08.2028 -
Marco Di Cesare Racing Club Aktiv 135 / 128 40% 1 23.08.2028 -
Marco Pellegrino Boca Juniors Aktiv 130 / 140 40% 1 23.08.2028 -
Edoardo Pieragnolo Sassuolo Aktiv 134 / 131 40% 1 20.08.2028 -
Sebastiano Luperto Cremonese Aktiv 144 / 136 40% 1 20.08.2028 -
Lucas Da Cunha Como Aktiv 148 / 164 40% 1 20.08.2028 -
Honest Ahanor Atalanta Aktiv 136 / 137 40% 2 18.08.2028 -
Exequiel Palacios Lazio Aktiv 156 / 171 40% 1 18.08.2028 -
Jordan Zemura Udinese Aktiv 143 / 148 40% 1 18.08.2028 -
Lewis Ferguson Bologna Aktiv 156 / 146 40% 3 17.08.2028 -
Devyne Rensch Virtus Entella Aktiv 151 / 163 40% 1 17.08.2028 -
Adrián Bernabé Parma Aktiv 141 / 155 40% 1 16.08.2028 -
Giorgio Scalvini Atalanta Aktiv 168 / 164 40% 1 16.08.2028 -
Enrico Delprato Parma Aktiv 154 / 159 40% 1 16.08.2028 -
Thierry Rendall Correia Venezia Aktiv 150 / 143 40% 1 15.08.2028 -
Antonino Gallo Bari Aktiv 141 / 152 40% 1 15.08.2028 -
Emanuele Valeri Parma Aktiv 141 / 155 40% 1 14.08.2028 -
Vicente Poggi Godoy Cruz Aktiv 126 / 116 40% 4 11.08.2028 -
Juan Miranda Bologna Aktiv 144 / 153 40% 1 11.08.2028 -
Alessandro Buongiorno Cagliari Aktiv 162 / 159 40% 1 11.08.2028 -
Morten Frendrup Palermo Aktiv 151 / 139 40% 1 10.08.2028 -
Andrey Santos Bolton Wanderers Aktiv 147 / 150 40% 1 09.08.2028 -
Reuell Walters Luton Town Aktiv 133 / 115 40% 1 09.08.2028 -
Boubacar Kamara Aston Villa Aktiv 171 / 172 40% 1 09.08.2028 -
Lewis Bate Stockport County Aktiv 136 / 137 40% 4 08.08.2028 -
Odel Offiah Shrewsbury Town Aktiv 127 / 135 40% 1 08.08.2028 -
Caspar Jander Southampton Aktiv 142 / 155 40% 1 08.08.2028 -
Alfie Doughty Millwall Aktiv 130 / 124 40% 6 07.08.2028 -
Vitaly Janelt Derby County Aktiv 150 / 149 40% 2 07.08.2028 -
Adrià Altimira Deportivo La Coruña Aktiv 138 / 138 40% 1 07.08.2028 -
Axel Montaña Danubio Verhandlung 98 / 108 79% 1 03.07.2028 Befürworten
Agustín Alaniz Rentistas Aktiv 118 / 120 79% 1 19.06.2028 Befürworten
Rodolfo Central Espanol Verloren 106 / 104 79% 1 12.06.2028 Befürworten
Nicolás Ferreira Wanderers Aktiv 116 / 123 79% 1 07.06.2028 Befürworten
Mohamed-Ali Cho Hull City Aktiv 147 / 131 40% 7 01.06.2028 -
Sebastiano Esposito Cagliari Aktiv 151 / 132 40% 2 01.06.2028 -
Rodrigo Muniz Fulham Aktiv 139 / 149 40% 1 01.06.2028 -
Shea Charles Southampton Aktiv 148 / 141 40% 8 31.05.2028 -
Jhon Solís Birmingham Aktiv 135 / 131 40% 1 31.05.2028 -
Demarai Gray Birmingham Aktiv 139 / 136 40% 1 29.05.2028 -
Joelinton Everton Aktiv 165 / 166 40% 6 24.05.2028 -
Amine Adli Bournemouth Aktiv 149 / 137 40% 3 24.05.2028 -
Harry Wilson Leeds United Aktiv 145 / 160 40% 2 23.05.2028 -
Kasey McAteer Barnsley Aktiv 135 / 129 40% 2 23.05.2028 -
Jayden Danns Bradford City Aktiv 139 / 151 40% 3 22.05.2028 -
Finn Azaz Southampton Aktiv 137 / 126 40% 4 22.05.2028 -
Ben Gannon Doak Charlton Athletic Aktiv 145 / 144 40% 10 21.05.2028 -
Tyrese Campbell Sheffield United Aktiv 133 / 131 40% 6 20.05.2028 -
Jaidon Anthony Derby County Aktiv 141 / 128 40% 6 20.05.2028 -
Jaden Philogene Wolverhampton Aktiv 152 / 158 40% 4 19.05.2028 -
Marcus Tavernier Bournemouth Aktiv 157 / 149 40% 4 16.05.2028 -
Abdoul Ouattara Port Vale Aktiv 136 / 132 40% 6 16.05.2028 -
Samuel Edozie Southampton Aktiv 133 / 133 40% 5 13.05.2028 -
Jeremy Sarmiento Middlesbrough Aktiv 137 / 136 40% 1 13.05.2028 -
Callum O'Hare Sheffield United Aktiv 131 / 147 40% 1 12.05.2028 -
Jayden Addai Bari Aktiv 145 / 150 40% 1 11.05.2028 -
Jarrod Bowen West Ham United Aktiv 160 / 150 40% 1 10.05.2028 -
Marcus Edwards Burnley Aktiv 144 / 153 40% 6 09.05.2028 -
Ismaïla Sarr Crystal Palace Aktiv 158 / 161 40% 7 08.05.2028 -
Sorba Thomas Stoke City Aktiv 135 / 146 40% 2 08.05.2028 -
Quilindschy Hartman Burnley Aktiv 155 / 163 40% 5 02.05.2028 -
Welington Southampton Aktiv 143 / 143 40% 10 01.05.2028 -
Isaiah Jones Luton Town Aktiv 135 / 140 40% 2 30.04.2028 -
Mikkel Damsgaard Brentford Aktiv 159 / 158 40% 7 27.04.2028 -
Carlos Alcaraz Stoke City Aktiv 148 / 148 40% 5 26.04.2028 -
Emile Smith Rowe Cardiff City Aktiv 155 / 138 40% 4 24.04.2028 -
Zito Luvumbo Cagliari Aktiv 143 / 133 40% 7 18.04.2028 -
Malick Fofana Sunderland Aktiv 158 / 156 40% 2 13.04.2028 -
Musa Barrow ES Setif Aktiv 151 / 139 40% 1 12.04.2028 -
Alex Scott Bournemouth Aktiv 153 / 161 40% 10 11.04.2028 -
Fábio Carvalho Brentford Aktiv 153 / 157 40% 3 05.04.2028 -
Brandon Thomas-Asante Blackpool Aktiv 124 / 110 40% 1 26.03.2028 -
Nathan Broadhead Wrexham Aktiv 125 / 139 40% 1 25.03.2028 -
William Osula Wrexham Aktiv 143 / 146 40% 3 24.03.2028 -
Riley McGree Middlesbrough Aktiv 143 / 137 40% 1 24.03.2028 -
Marcelo Allende Mamelodi Sundowns Aktiv 146 / 143 40% 4 20.03.2028 -
Eddie Nketiah Crystal Palace Aktiv 142 / 152 40% 2 19.03.2028 -
Yeremy Pino Crystal Palace Aktiv 156 / 156 40% 1 04.03.2028 -
Matteo Ruggeri Middlesbrough Aktiv 154 / 138 40% 1 02.03.2028 -
Borja Sainz Udinese Aktiv 158 / 160 40% 1 29.02.2028 -
Manor Solomon West Ham United Aktiv 145 / 140 40% 1 27.02.2028 -
Nuno Santos SuperSport United Aktiv 132 / 111 40% 1 21.02.2028 -
Luis Rodriguez Valur Aktiv 128 / 118 40% 3 19.02.2028 -
Alisson Shakhtar Aktiv 139 / 150 40% 1 12.02.2028 -
Esequiel Barco Spartak Moscow Aktiv 149 / 138 40% 1 11.02.2028 -
Marquinhos Spartak Moscow Aktiv 130 / 142 40% 1 05.02.2028 -
Franco Zapiola Platense Aktiv 132 / 124 40% 1 01.02.2028 -
Alex Luna Instituto Aktiv 135 / 133 40% 3 31.01.2028 -
Jherson Mosquera Newell's Old Boys Aktiv 129 / 123 40% 4 30.01.2028 -
Juan Bisanz Huracán Aktiv 126 / 137 40% 1 30.01.2028 -
Aarón Molinas Defensa y Justicia Aktiv 133 / 117 40% 2 28.01.2028 -
Bruno Barticciotto Talleres Aktiv 134 / 120 40% 1 26.01.2028 -
Tomás Galván River Plate Aktiv 129 / 118 40% 1 21.01.2028 -
Lautaro Guzmán MTK Budapest Aktiv 122 / 112 40% 1 16.01.2028 -
Gastón Togni Defensa y Justicia Aktiv 125 / 119 40% 3 11.01.2028 -
Matko Miljevic Racing Club Aktiv 132 / 119 40% 1 09.01.2028 -
Tiago Palacios Estudiantes Aktiv 131 / 133 40% 1 06.01.2028 -
Jaminton Campaz Rosario Central Aktiv 130 / 134 40% 2 05.01.2028 -
Alexis Cuello San Lorenzo Aktiv 124 / 125 40% 1 04.01.2028 -
Nicolás Tripichio San Lorenzo Aktiv 120 / 121 40% 2 27.12.2027 -
César Ibáñez Huracán Aktiv 123 / 124 40% 2 13.12.2027 -
Largie Ramazani Leeds United Aktiv 149 / 145 40% 1 02.12.2027 -
Josh Keeley Luton Town Aktiv 140 / 143 40% 5 29.11.2027 -
Lautaro Maldonado Instituto Aktiv 118 / 121 40% 11 29.11.2027 -
Vladimir Nazarov Pakhtakor Aktiv 117 / 110 40% 3 29.11.2027 -
James Trafford Leeds United Aktiv 149 / 137 40% 10 28.11.2027 -
Lautaro Morales Lanús Aktiv 134 / 123 40% 9 25.11.2027 -
Luciano Jachfe Nueva Chicago Aktiv 121 / 128 40% 9 24.11.2027 -
Leandro Brey Boca Juniors Aktiv 131 / 126 40% 4 23.11.2027 -
Abduvohid Ne'matov Nasaf Aktiv 126 / 115 40% 5 22.11.2027 -
Sol Brynn Bradford City Aktiv 137 / 140 40% 3 22.11.2027 -
Miguel Acosta Argentinos Juniors Aktiv 112 / 103 40% 8 21.11.2027 -
Guillermo Enrique Huracán Aktiv 120 / 127 40% 2 21.11.2027 -
Joaquín García Vélez Aktiv 130 / 127 40% 1 21.11.2027 -
Felipe Peña Biafore Lanús Aktiv 133 / 125 40% 2 20.11.2027 -
Aarón Quiros Vélez Aktiv 126 / 131 40% 1 20.11.2027 -
Laureano Martínez Talleres Aktiv 110 / 102 40% 6 17.11.2027 -
Federico Losas Chacarita Juniors Aktiv 124 / 123 40% 6 15.11.2027 -
Ľubomír Belko Viking Aktiv 137 / 152 40% 5 15.11.2027 -
Oliver Dovin Coventry City Aktiv 140 / 147 40% 3 14.11.2027 -
Franco Díaz Temperley Aktiv 128 / 133 40% 2 14.11.2027 -
Emanuel Coronel Rosario Central Aktiv 129 / 120 40% 1 14.11.2027 -
Bruno Antúnez Boston River Aktiv 115 / 111 40% 9 11.11.2027 -
Cristopher Varela Deportivo La Guaira Aktiv 127 / 130 40% 8 11.11.2027 -
Frankarlos Benítez Caracas Aktiv 106 / 108 40% 7 10.11.2027 -
Facundo Vila Estudiantes Aktiv 108 / 98 40% 8 08.11.2027 -
Iván Chaves Patronato Aktiv 103 / 100 40% 4 08.11.2027 -
Luis Ingolotti Atlético Tucumán Aktiv 126 / 116 40% 4 03.11.2027 -
Francisco Salerno Defensores Unidos Aktiv 106 / 101 40% 6 29.10.2027 -
Victor Hernandez Santa Fe Aktiv 122 / 113 40% 2 27.10.2027 -
Murphy Cooper Plymouth Argyle Aktiv 118 / 120 40% 4 24.10.2027 -
Fabrizio Correa Juventud Aktiv 123 / 110 40% 8 22.10.2027 -
Mikheil Makatsaria Torpedo Kutaisi Aktiv 114 / 115 40% 3 21.10.2027 -
Nahuel Banegas Tigre Aktiv 120 / 115 40% 2 21.10.2027 -
Christos Mandas Lazio Aktiv 151 / 131 40% 2 21.10.2027 -
Ignacio Abraham Banfield Aktiv 120 / 121 40% 1 21.10.2027 -
José Florentín Independiente Rivadavia Aktiv 123 / 110 40% 1 21.10.2027 -
Lucas Carrizo Newell's Old Boys Aktiv 130 / 116 40% 2 20.10.2027 -
Nicolás Sumavil Platense Aktiv 117 / 108 40% 8 16.10.2027 -
Mauro Casoli Talleres Aktiv 112 / 98 40% 7 09.10.2027 -
Mathías Bernatene Liverpool Montevideo Aktiv 111 / 103 40% 1 09.10.2027 -
Miguel Silva Carabobo Aktiv 117 / 106 40% 3 08.10.2027 -
Hernán de la Fuente Instituto Aktiv 119 / 125 40% 2 08.10.2027 -
Lucas Souto Defensa y Justicia Aktiv 126 / 132 40% 3 08.10.2027 -
Adrián Sánchez Belgrano Aktiv 126 / 125 40% 2 07.10.2027 -
Lukáš Horníček Burnley Aktiv 154 / 157 40% 1 04.10.2027 -
Sasha Marcich Lanús Aktiv 124 / 129 40% 1 04.10.2027 -
Claudio Bravo Argentinos Juniors Aktiv 121 / 126 40% 1 02.10.2027 -
Temirlan Anarbekov Kairat Aktiv 118 / 124 40% 5 29.09.2027 -
Oliver Petersen Odd Aktiv 122 / 111 40% 4 27.09.2027 -
Muhammadyusuf Sobirov Bunyodkor Aktiv 109 / 107 40% 1 25.09.2027 -
N'Golo Traoré Stade Malien Aktiv 113 / 124 40% 2 24.09.2027 -
Ander Astralaga Newcastle United Aktiv 135 / 134 40% 1 23.09.2027 -
Aníbal Moreno River Plate Aktiv 137 / 126 40% 1 23.09.2027 -
Emiliano Álvarez Progreso Aktiv 126 / 117 40% 2 30.08.2027 -
Daniil Ustimenko Tobol Aktiv 109 / 110 40% 1 29.08.2027 -
Leonardo Godoy Independiente Aktiv 122 / 129 40% 1 27.08.2027 -
Luka Gavran Toronto FC Aktiv 109 / 102 40% 4 23.08.2027 -
Damián Fernández Defensa y Justicia Aktiv 129 / 121 40% 1 22.08.2027 -
Isaac Boehmer Vancouver Whitecaps Aktiv 115 / 100 40% 1 19.08.2027 -
Oumar Solet Udinese Aktiv 157 / 155 40% 1 19.08.2027 -
Gianluca Saro Foggia Aktiv 120 / 105 40% 4 17.08.2027 -
Matteo Sorzi Carpi Aktiv 101 / 123 40% 2 17.08.2027 -
Valerio Boffelli Cavese Aktiv 107 / 96 40% 1 12.08.2027 -
Cesare Galeotti Trapani Aktiv 113 / 113 40% 2 11.08.2027 -
William Rovida Pro Patria Aktiv 108 / 122 40% 2 10.08.2027 -
Filip Marschall Stevenage Aktiv 115 / 122 40% 5 09.08.2027 -
Max Bird Birmingham Aktiv 133 / 150 40% 6 08.08.2027 -
Nathan Bishop AFC Wimbledon Aktiv 107 / 109 40% 3 08.08.2027 -
Ludovico Del Sorbo Sorrento Aktiv 109 / 118 40% 3 30.07.2027 -
Jordan Amissah Burton Albion Aktiv 115 / 116 40% 1 30.07.2027 -
Robin Roefs Sunderland Aktiv 155 / 161 40% 6 27.07.2027 -
Myles Roberts Cambridge United Aktiv 105 / 111 40% 1 25.07.2027 -
Nicolò Zaniolo Udinese Aktiv 150 / 133 40% 2 19.07.2027 -
Giacomo Raspadori Atalanta Aktiv 154 / 153 40% 1 19.07.2027 -
Mateo Pellegrino Fiorentina Aktiv 145 / 149 40% 1 01.07.2027 -
Adam Randell Bristol City Aktiv 130 / 144 40% 6 28.06.2027 -
Max Johnston Derby County Aktiv 125 / 121 40% 14 28.06.2027 -
Jonathan Varane Queens Park Rangers Aktiv 132 / 113 40% 2 28.06.2027 -
Darlin Yongwa Norwich City Aktiv 127 / 117 40% 4 23.06.2027 -
Florentino Luís Ipswich Town Aktiv 139 / 127 40% 9 23.06.2027 -
Erick Sánchez RC Lens Aktiv 139 / 139 68% 1 01.06.2027 Befürworten
Ivor Pandur Hull City Aktiv 127 / 119 40% 1 30.05.2027 -
Pedro Porro Tottenham Aktiv 146 / 165 40% 3 25.05.2027 -
Oliver Skipp Leicester City Aktiv 139 / 146 40% 6 24.05.2027 -
Jacques Ekomié Wrexham Aktiv 134 / 141 40% 7 24.05.2027 -
Milan van Ewijk Coventry City Aktiv 128 / 138 40% 11 23.05.2027 -
Sergio Barlocco Trento Aktiv 105 / 126 40% 1 22.05.2027 -
Adam Wharton Crystal Palace Aktiv 149 / 146 40% 7 20.05.2027 -
Dennis Cirkin Queens Park Rangers Aktiv 126 / 122 40% 6 18.05.2027 -
Jarrad Branthwaite Everton Aktiv 157 / 170 40% 4 18.05.2027 -
Mats Wieffer Brighton Aktiv 152 / 157 40% 4 17.05.2027 -
Ousmane Diomande Nottingham Forest Aktiv 156 / 171 40% 2 17.05.2027 -
Juanlu Bournemouth Aktiv 141 / 167 40% 6 16.05.2027 -
André Wolverhampton Aktiv 149 / 154 40% 9 15.05.2027 -
Keane Lewis-Potter Brentford Aktiv 140 / 149 40% 2 15.05.2027 -
Nicolas Madsen Queens Park Rangers Aktiv 126 / 123 40% 2 14.05.2027 -
Ryan Sessegnon Fulham Aktiv 150 / 143 40% 4 13.05.2027 -
Jake O'Brien Everton Aktiv 142 / 150 40% 3 11.05.2027 -
Jack Currie Oxford United Aktiv 127 / 122 40% 3 11.05.2027 -
Jacob Greaves Ipswich Town Aktiv 136 / 128 40% 5 06.05.2027 -
Raoul Bellanova Atalanta Aktiv 154 / 158 40% 3 05.05.2027 -
Ronnie Edwards Queens Park Rangers Aktiv 126 / 146 40% 3 04.05.2027 -
Derry Murkin Derby County Aktiv 131 / 127 40% 3 02.05.2027 -
Óscar Mingueza Crystal Palace Aktiv 145 / 167 40% 5 28.04.2027 -
James Garner Everton Aktiv 144 / 166 40% 3 28.04.2027 -
Aaron Hickey Brentford Aktiv 142 / 141 40% 2 24.04.2027 -
Toby Collyer West Bromwich Albion Aktiv 133 / 116 40% 3 23.04.2027 -
Shahriar Rezaeian Siah Jamegan Aktiv 103 / 106 40% 1 20.04.2027 -
Quinten Timber Crystal Palace Aktiv 153 / 153 40% 5 18.04.2027 -
Harry Clarke Preston Aktiv 130 / 132 40% 6 15.04.2027 -
Aidan Morris Middlesbrough Aktiv 125 / 113 40% 5 11.04.2027 -
Fran Vieites Walsall Aktiv 125 / 107 40% 2 05.04.2027 -
Habib Diarra Sunderland Aktiv 141 / 130 40% 3 02.04.2027 -
Oufa Shobeir MC Alger Aktiv 125 / 124 40% 1 01.04.2027 -
Lewis Gibson Preston Aktiv 120 / 109 40% 1 22.03.2027 -
Alexandr Koryakin Krasnodar Aktiv 113 / 133 40% 2 15.03.2027 -
Arthur Beroe Aktiv 119 / 114 40% 1 15.03.2027 -
Heorhii Yermakov Metalist Aktiv 123 / 112 40% 3 10.03.2027 -
Nico O'Reilly Manchester City Aktiv 160 / 165 40% 2 02.03.2027 -
Pelle Mattsson Norwich City Aktiv 117 / 119 40% 3 26.02.2027 -
Luke McNally Bristol City Aktiv 128 / 138 40% 4 24.02.2027 -
Dara O'Shea Ipswich Town Aktiv 139 / 119 40% 3 23.02.2027 -
Nathan Collins Brentford Aktiv 146 / 138 40% 2 21.02.2027 -
Matevž Vidovšek Olimpija Ljubljana Aktiv 128 / 111 40% 3 15.02.2027 -
Lukas Jensen Millwall Aktiv 113 / 123 40% 1 15.02.2027 -
Japhet Tanganga Sheffield United Aktiv 139 / 119 40% 5 13.02.2027 -
Álex Centelles Levski Aktiv 129 / 137 40% 2 12.02.2027 -
Aldair Faustino Levski Aktiv 117 / 105 40% 1 07.02.2027 -
Bosun Lawal Stoke City Aktiv 128 / 112 40% 2 05.02.2027 -
Luca Gemello Perugia Aktiv 111 / 95 40% 1 05.02.2027 -
Teden Mengi Luton Town Aktiv 131 / 118 40% 4 02.02.2027 -
Hayden Carter Blackburn Rovers Aktiv 124 / 102 40% 1 02.02.2027 -
Gustavo Mantuan Zenit Aktiv 131 / 140 40% 3 31.01.2027 -
Alfie Gilchrist West Bromwich Albion Aktiv 126 / 132 40% 3 30.01.2027 -
Brian De Keersmaecker Oxford United Aktiv 119 / 124 40% 1 28.01.2027 -
Samu Maccabi Netanya Aktiv 119 / 111 40% 1 24.01.2027 -
Grégoire Coudert Burnley Aktiv 134 / 128 40% 2 17.01.2027 -
Dion Lopy Al-Ittihad Aktiv 122 / 146 40% 1 11.01.2027 -
Lee Buchanan Sheffield Wednesday Aktiv 121 / 132 40% 1 11.01.2027 -
Mamadou Sangaré Brentford Aktiv 134 / 150 40% 1 08.01.2027 -
Sławomir Abramowicz Jagiellonia Aktiv 126 / 124 40% 2 02.01.2027 -
Roman Celentano FC Cincinnati Aktiv 114 / 129 40% 1 02.01.2027 -
Chris Mepham West Bromwich Albion Aktiv 125 / 117 40% 1 30.12.2026 -
Kenny Tete Fulham Aktiv 139 / 127 40% 1 29.12.2026 -
Gedson Fernandes Spartak Moscow Aktiv 136 / 125 40% 1 19.12.2026 -
Ştefan Târnovanu CFR Cluj Aktiv 123 / 132 40% 1 18.12.2026 -
Kristoffer Lund Birmingham Aktiv 130 / 133 40% 1 16.12.2026 -
Diego Enríquez Sporting Cristal Aktiv 129 / 124 40% 3 08.12.2026 -
Luka Jović CFR Cluj Aktiv 143 / 130 40% 7 06.12.2026 -
Esteban Obregón Montevideo City Torque Aktiv 114 / 118 79% 1 06.12.2026 Befürworten
Ollie Watkins Al-Hilal Aktiv 153 / 132 40% 4 02.12.2026 -
Stanislav Agkatsev Brentford Aktiv 132 / 133 66% 1 01.12.2026 Befürworten
Marvin Keller Chelsea Aktiv 136 / 137 67% 1 01.12.2026 Befürworten
Che Adams Torino Aktiv 137 / 131 40% 2 30.11.2026 -
Oli McBurnie Hull City Aktiv 129 / 148 40% 1 28.11.2026 -
Bertrand Traoré Sunderland Aktiv 138 / 115 40% 3 27.11.2026 -
Germán Berterame Inter Miami CF Aktiv 138 / 116 40% 4 24.11.2026 -
Alexey Miranchuk Atlanta United FC Aktiv 135 / 134 40% 3 24.11.2026 -
Reda Khadra Qarabag Aktiv 124 / 117 40% 1 24.11.2026 -
Oscar Al-Taawoun Aktiv 149 / 124 40% 1 24.11.2026 -
Leo Ceara Kashima Antlers Aktiv 134 / 121 40% 6 22.11.2026 -
Vitinha Genoa Aktiv 137 / 143 40% 1 21.11.2026 -
Azor Matusiwa Ipswich Town Aktiv 143 / 120 40% 1 19.11.2026 -
Radek Vítek Middlesbrough Aktiv 135 / 118 40% 3 17.11.2026 -
Hidemasa Morita Hull City Aktiv 149 / 127 40% 1 15.11.2026 -
Keinan Davis Udinese Aktiv 125 / 120 40% 2 13.11.2026 -
Martín Ojeda Orlando City Aktiv 137 / 150 40% 6 12.11.2026 -
Martin Trnovský Podbrezova Aktiv 106 / 100 40% 1 09.11.2026 -
Mojmír Chytil Slavia Prague Aktiv 127 / 114 40% 4 07.11.2026 -
Hwang Hee-Chan Wolverhampton Aktiv 135 / 149 40% 1 06.11.2026 -
Nathan Trott Cardiff City Aktiv 123 / 119 40% 1 04.11.2026 -
Lukas Gütlbauer Wolfsberger AC Aktiv 117 / 121 40% 1 01.11.2026 -
Lucas Bergström Union Berlin Aktiv 118 / 117 40% 4 28.10.2026 -
Takuma Asano Sanfrecce Hiroshima Aktiv 135 / 150 40% 6 23.10.2026 -
Petar Musa FC Dallas Aktiv 140 / 136 40% 4 22.10.2026 -
Andreas Jungdal Westerlo Aktiv 119 / 133 40% 1 10.10.2026 -
Pablo Felipe West Ham United Aktiv 126 / 135 40% 1 07.10.2026 -
Richard Ludha MFK Skalica Aktiv 109 / 116 40% 1 06.10.2026 -
Justin Hammel Grasshopper Aktiv 121 / 115 40% 1 28.09.2026 -
Diego Romero Universitario Aktiv 118 / 114 40% 2 26.09.2026 -
Myrto Uzuni Austin FC Aktiv 134 / 147 40% 1 26.09.2026 -
CJ dos Santos San Diego Football Club Aktiv 115 / 121 40% 1 25.09.2026 -
Enes Ünal Getafe Aktiv 138 / 143 40% 1 21.09.2026 -
Aldo Pérez Guarani Aktiv 107 / 121 40% 2 14.09.2026 -
Jesús Angulo Tigres Aktiv 142 / 132 40% 1 10.09.2026 -
Ander Guevara Racing Genk Aktiv 129 / 133 40% 1 10.09.2026 -
Héctor Holguín Morelia Aktiv 111 / 125 40% 2 06.09.2026 -
Kazuki Fujita Avispa Fukuoka Aktiv 119 / 116 40% 1 04.09.2026 -
Patrick Schulte Columbus Crew Aktiv 116 / 118 40% 1 25.08.2026 -
Anthony Racioppi Sion Aktiv 124 / 124 40% 2 21.08.2026 -
Steven Bergwijn Al-Ittihad Aktiv 147 / 146 40% 1 14.08.2026 -
Lucas Verza Olimpia Aktiv 109 / 98 40% 1 12.08.2026 -
Mauro Silveira Junior Aktiv 111 / 102 40% 1 05.08.2026 -
John Pulskamp Sporting Kansas City Aktiv 115 / 131 40% 1 05.08.2026 -
Milan Škriniar Fenerbahce Aktiv 159 / 166 40% 1 04.08.2026 -
Víctor Guzmán Monterrey Aktiv 121 / 134 40% 1 04.08.2026 -
Kevin Álvarez Club America Aktiv 129 / 127 40% 1 04.08.2026 -
Luis Romo Guadalajara Aktiv 138 / 136 40% 1 03.08.2026 -
Carlos Álvarez Club America Aktiv 133 / 126 40% 1 03.08.2026 -
Jesús Gallardo Toluca Aktiv 129 / 121 40% 1 03.08.2026 -